Flight Track Log - Related Links

Times and Time Zones

All times are in EDT time to prevent confusion due to time zone crossing. See the EGF3476 flight status page for this flight to view local times or setup timezone preferences in your user account.


Time Position Orientation Groundspeed Altitude Reporting Facility
EDT Latitude Longitude Course Direction KTS MPH feet Rate Location/Type
Sat 07:04:00 AM 32.8102 -80.2080 190° South  Level FlightAware Approximate
Sat 07:04:02 AM 32.7978 -80.1125 211° Southwest 239 275 3,900  Level Jacksonville Center
Sat 07:05:00 AM 32.7069 -80.2409 194° South  Level FlightAware Approximate
Sat 07:05:02 AM 32.7464 -80.1558 215° Southwest 239 275 6,400  Level Jacksonville Center
Sat 07:06:00 AM 32.6010 -80.2745 203° Southwest  Level FlightAware Approximate
Sat 07:06:02 AM 32.6869 -80.2022 213° Southwest 244 281 8,900  Level Jacksonville Center
Sat 07:07:00 AM 32.5017 -80.3300 206° Southwest  Level FlightAware Approximate
Sat 07:07:02 AM 32.6233 -80.2558 215° Southwest 263 303 10,300  Level Jacksonville Center
Sat 07:08:00 AM 32.4059 -80.3935 211° Southwest  Level FlightAware Approximate
Sat 07:08:02 AM 32.5472 -80.3097 211° Southwest 295 339 11,600  Level Jacksonville Center
Sat 07:09:00 AM 32.3119 -80.4606 211° Southwest  Level FlightAware Approximate
Sat 07:09:02 AM 32.4558 -80.3344 193° South 320 368 12,800  Level Jacksonville Center
Sat 07:10:02 AM 32.3603 -80.3569 191° South 341 392 14,800 2,000 Climbing Jacksonville Center
Sat 07:11:02 AM 32.2669 -80.3817 193° South 352 405 16,800 1,900 Climbing Jacksonville Center
Sat 07:12:02 AM 32.1797 -80.4061 193° South 352 405 18,600 1,650 Climbing Jacksonville Center
Sat 07:13:02 AM 32.0925 -80.4256 191° South 323 372 20,100 1,550 Climbing Jacksonville Center
Sat 07:14:02 AM 32.0072 -80.4500 194° South 315 362 21,700 1,500 Climbing Jacksonville Center
Sat 07:15:02 AM 31.9139 -80.4719 191° South 325 374 23,100 1,388 Climbing Jacksonville Center
Sat 07:16:03 AM 31.8306 -80.4914 191° South 353 406 24,500 1,500 Climbing Jacksonville Center
Sat 07:17:02 AM 31.7267 -80.5183 192° South 353 406 26,100 1,563 Climbing Jacksonville Center
Sat 07:18:02 AM 31.6311 -80.5428 192° South 353 406 27,600 1,500 Climbing Jacksonville Center
Sat 07:19:02 AM 31.5378 -80.5719 195° South 353 406 29,100 1,500 Climbing Jacksonville Center
Sat 07:20:02 AM 31.4400 -80.5914 190° South 353 406 30,600 1,350 Climbing Jacksonville Center
Sat 07:21:02 AM 31.3444 -80.6158 192° South 353 406 31,800 1,100 Climbing Jacksonville Center
Sat 07:22:02 AM 31.2447 -80.6400 192° South 365 420 32,800 992 Climbing Jacksonville Center
Sat 07:23:03 AM 31.1383 -80.6475 183° South 370 426 33,800 1,000 Climbing Jacksonville Center
Sat 07:24:02 AM 31.0339 -80.6522 182° South 375 432 34,800 1,008 Climbing Jacksonville Center
Sat 07:25:02 AM 30.9297 -80.6619 185° South 386 444 35,800 600 Climbing Jacksonville Center
Sat 07:26:02 AM 30.8169 -80.6672 182° South 386 444 36,000 100 Climbing Jacksonville Center
Sat 07:27:02 AM 30.7275 -80.6742 184° South 391 450 36,000 -50 Level Jacksonville Center
Sat 07:28:02 AM 30.6022 -80.6794 182° South 402 463 35,900  Descending Jacksonville Center
Sat 07:29:02 AM 30.4875 -80.6892 184° South 414 476 36,000 50 Climbing Jacksonville Center
Sat 07:30:03 AM 30.3625 -80.6969 183° South 431 496 36,000  Level Jacksonville Center
Sat 07:31:02 AM 30.2414 -80.7047 183° South 437 503 36,000 -50 Level Jacksonville Center
Sat 07:32:02 AM 30.1186 -80.7147 184° South 443 510 35,900  Descending Jacksonville Center
Sat 07:33:02 AM 30.0036 -80.7194 182° South 443 510 36,000 50 Climbing Jacksonville Center
Sat 07:34:02 AM 29.8808 -80.7272 183° South 443 510 36,000  Level Jacksonville Center
Sat 07:35:45 AM 29.6561 -80.7403 183° South 445 512 36,000  Level Miami Center
Sat 07:36:45 AM 29.5331 -80.7478 183° South 445 512 36,000  Level Miami Center
Sat 07:37:45 AM 29.4242 -80.7583 185° South 445 512 36,000  Level Miami Center
Sat 07:38:45 AM 29.2997 -80.7347 171° South 445 512 36,000  Level Miami Center
Sat 07:39:45 AM 29.1775 -80.7092 170° South 445 512 36,000  Level Miami Center
Sat 07:40:45 AM 29.0531 -80.6833 170° South 451 519 36,000  Level Miami Center
Sat 07:41:45 AM 28.9264 -80.6578 170° South 457 526 36,000  Level Miami Center
Sat 07:42:45 AM 28.7914 -80.6317 170° South 457 526 36,000  Level Miami Center
Sat 07:43:45 AM 28.6753 -80.6089 170° South 467 537 36,000  Level Miami Center
Sat 07:44:45 AM 28.5467 -80.5808 169° South 467 537 36,000  Level Miami Center
Sat 07:45:45 AM 28.4117 -80.5553 171° South 467 537 36,000  Level Miami Center
Sat 07:46:45 AM 28.2933 -80.5278 168° South 474 545 36,000  Level Miami Center
Sat 07:47:45 AM 28.1647 -80.5047 171° South 474 545 36,000  Level Miami Center
Sat 07:48:45 AM 28.0422 -80.4794 170° South 456 525 36,000 -50 Level Miami Center
Sat 07:49:45 AM 27.9111 -80.4567 171° South 473 544 35,900 -1,450 Descending Miami Center
Sat 07:50:45 AM 27.7658 -80.4286 170° South 488 562 33,100 -2,850 Descending Miami Center
Sat 07:51:45 AM 27.6392 -80.4033 170° South 481 554 30,200 -2,900 Descending Miami Center
Sat 07:52:45 AM 27.5122 -80.3786 170° South 471 542 27,300 -2,750 Descending Miami Center
Sat 07:53:45 AM 27.3856 -80.3558 171° South 465 535 24,700 -1,650 Descending Miami Center
Sat 07:54:45 AM 27.2631 -80.3264 168° South 465 535 24,000 -400 Descending Miami Center
Sat 07:55:45 AM 27.1431 -80.2786 160° South 453 521 23,900 -900 Descending Miami Center
Sat 07:56:45 AM 27.0253 -80.2308 160° South 453 521 22,200 -1,700 Descending Miami Center
Sat 07:57:45 AM 26.9072 -80.1831 160° South 458 527 20,500 -1,650 Descending Miami Center
Sat 07:58:45 AM 26.8122 -80.1386 157° South 438 504 18,900 -1,800 Descending Miami Center
Sat 07:59:45 AM 26.6900 -80.0908 161° South 424 488 16,900 -2,250 Descending Miami Center
Sat 08:00:45 AM 26.5736 -80.0669 170° South 419 482 14,400 -2,214 Descending Miami Center
Sat 08:01:28 AM 26.4881 -80.0575 174° South 401 461 13,100 -1,400 Descending Miami Center
Sat 08:01:45 AM 26.4633 -80.0500 165° South 411 473 13,000 -300 Descending Miami Center
Sat 08:02:28 AM 26.3842 -80.0386 173° South 381 438 12,800 -400 Descending Miami Center
Sat 08:02:45 AM 26.3572 -80.0331 170° South 393 452 12,600 -964 Descending Miami Center
Sat 08:03:24 AM 26.2864 -80.0219 172° South 391 450 11,900 -1,000 Descending Miami Center
Sat 08:03:45 AM 26.2614 -80.0167 169° South 387 445 11,600 -1,200 Descending Miami Center
Sat 08:04:24 AM 26.1775 -80.0353 191° South 385 443 10,700 -1,100 Descending Miami Center
Sat 08:04:45 AM 26.1544 -80.0369 184° South 379 436 10,500 -627 Descending Miami Center
Sat 08:05:31 AM 26.0681 -80.0672 197° South 377 434 10,000 -449 Descending Miami Center
Sat 08:06:32 AM 25.9736 -80.0947 195° South 293 337 9,700 -934 Descending Miami Center
Sat 08:07:33 AM 25.9239 -80.1625 231° Southwest 279 321 8,100 -902 Descending Miami Center
Sat 08:08:45 AM 25.8931 -80.2403 246° West 282 325 7,700 -333 Descending Miami Center

Login

Don't have an account? Register now (free) for customized features, flight alerts, and more!